Spencer, Wisconsin
Current Conditions -  °F | °C
As of 8:54 AM on Wednesday 26 Nov 2014 (Local Time) from KMFI Reporting Station
Overcast Overcast  
Wind Chill: 10°   Ceiling: 7000
Heat Index: 19°   Visibility: 7mi
Dew Point: 14°   Wind: 7mph
Humidity: 81%   Direction: 120°ESE
Pressure: 30.11"   Gusts: NA
Location:  44.76°N, 90.3°W
Report Text: KMFI 261454Z AUTO 12006KT 7SM OVC070 M07/M10 A3011 RMK AO2 SLP219 T10721100 51007
Loading
Personal Weather Stations






























Interactive Weather Map New forecast layout! Learn more

10-Day Weather Forecast

Advertisements
Track Severe Weather on mobile